createdAt,value
2023-01-13T00:00:24.732Z,84.40
2023-01-13T00:02:51.809Z,84.20
2023-01-13T00:05:18.733Z,84.20
2023-01-13T00:07:46.720Z,84.10
2023-01-13T00:10:13.624Z,84.10
2023-01-13T00:12:42.288Z,84.00
2023-01-13T00:15:10.504Z,84.00
2023-01-13T00:17:39.171Z,84.20
2023-01-13T00:20:07.227Z,83.90
2023-01-13T00:22:36.144Z,83.90
2023-01-13T00:25:04.696Z,83.70
2023-01-13T00:27:31.877Z,83.80
2023-01-13T00:29:58.825Z,83.80
2023-01-13T00:32:26.580Z,83.80
2023-01-13T00:34:53.568Z,83.90
2023-01-13T00:37:23.010Z,83.80
2023-01-13T00:39:51.788Z,83.60
2023-01-13T00:42:38.047Z,83.50
2023-01-13T00:45:05.723Z,83.60
2023-01-13T00:47:32.727Z,83.50
2023-01-13T00:49:59.793Z,83.30
2023-01-13T00:52:27.755Z,83.20
2023-01-13T00:54:54.828Z,83.10
2023-01-13T00:57:21.704Z,82.80
2023-01-13T00:59:49.638Z,82.80
2023-01-13T01:02:16.717Z,82.70
2023-01-13T01:04:43.905Z,82.50
2023-01-13T01:07:10.744Z,82.60
2023-01-13T01:09:40.063Z,82.60
2023-01-13T01:12:08.086Z,82.70
2023-01-13T01:14:35.316Z,82.70
2023-01-13T01:17:04.769Z,82.90
2023-01-13T01:19:31.745Z,82.80
2023-01-13T01:21:59.879Z,82.90
2023-01-13T01:24:26.717Z,82.80
2023-01-13T01:26:53.874Z,82.70
2023-01-13T01:29:21.443Z,82.60
2023-01-13T01:31:48.567Z,82.40
2023-01-13T01:34:15.668Z,82.30
2023-01-13T01:36:45.947Z,82.40
2023-01-13T01:39:13.082Z,82.40
2023-01-13T01:41:40.175Z,82.20
2023-01-13T01:44:44.870Z,82.10
2023-01-13T01:47:16.393Z,82.30
2023-01-13T01:49:44.950Z,82.40
2023-01-13T01:52:16.546Z,82.40
2023-01-13T01:54:53.594Z,82.40
2023-01-13T01:57:28.411Z,82.30
2023-01-13T01:59:58.197Z,82.20
2023-01-13T02:02:25.576Z,82.20
2023-01-13T02:04:56.884Z,82.10
2023-01-13T02:07:27.344Z,82.00
2023-01-13T02:09:57.601Z,82.10
2023-01-13T02:12:32.890Z,81.80
2023-01-13T02:15:07.609Z,81.70
2023-01-13T02:18:02.287Z,81.50
2023-01-13T02:20:45.647Z,81.40
2023-01-13T02:23:52.961Z,81.40
2023-01-13T02:26:55.233Z,81.30
2023-01-13T02:30:19.675Z,81.20
2023-01-13T02:33:02.372Z,81.10
2023-01-13T02:35:48.244Z,81.10
2023-01-13T02:38:19.282Z,81.30
2023-01-13T02:41:23.721Z,81.40
2023-01-13T02:44:09.710Z,81.30
2023-01-13T02:46:55.461Z,81.00
2023-01-13T02:49:41.127Z,81.00
2023-01-13T02:52:21.841Z,80.80
2023-01-13T02:54:57.143Z,80.80
2023-01-13T02:57:26.450Z,80.60
2023-01-13T02:59:55.589Z,80.10
2023-01-13T03:02:25.176Z,80.00
2023-01-13T03:04:59.823Z,80.20
2023-01-13T03:07:48.087Z,80.10
2023-01-13T03:10:34.175Z,80.10
2023-01-13T03:13:20.553Z,80.00
2023-01-13T03:16:09.408Z,79.70
2023-01-13T03:18:53.218Z,79.50
2023-01-13T03:21:42.013Z,79.30
2023-01-13T03:24:25.454Z,79.40
2023-01-13T03:27:03.967Z,79.10
2023-01-13T03:29:57.974Z,78.80
2023-01-13T03:32:32.669Z,79.00
2023-01-13T03:35:18.920Z,78.90
2023-01-13T03:37:58.527Z,78.90
2023-01-13T03:40:35.402Z,78.90
2023-01-13T03:43:31.633Z,78.70
2023-01-13T03:46:05.084Z,78.60
2023-01-13T03:48:37.653Z,78.60
2023-01-13T03:51:11.203Z,78.70
2023-01-13T03:53:49.775Z,78.70
2023-01-13T03:56:33.637Z,78.50
2023-01-13T03:59:05.203Z,78.70
2023-01-13T04:01:53.708Z,78.60
2023-01-13T04:04:27.188Z,78.50
2023-01-13T04:07:13.933Z,78.10
2023-01-13T04:10:04.835Z,78.20
2023-01-13T04:13:00.572Z,77.70
2023-01-13T04:15:31.395Z,77.70
2023-01-13T04:18:27.070Z,77.80
2023-01-13T04:20:56.194Z,77.60
2023-01-13T04:23:24.364Z,77.10
2023-01-13T04:25:51.857Z,76.70
2023-01-13T04:28:19.420Z,76.80
2023-01-13T04:30:46.626Z,76.40
2023-01-13T04:33:14.699Z,76.40
2023-01-13T04:35:41.937Z,76.00
2023-01-13T04:38:12.990Z,75.60
2023-01-13T04:40:41.365Z,75.70
2023-01-13T04:43:08.541Z,75.80
2023-01-13T04:45:35.932Z,76.10
2023-01-13T04:48:03.189Z,75.90
2023-01-13T04:50:29.937Z,75.90
2023-01-13T04:52:56.713Z,76.00
2023-01-13T04:55:24.743Z,75.60
2023-01-13T04:57:52.072Z,75.80
2023-01-13T05:00:22.275Z,75.90
2023-01-13T05:02:52.227Z,75.70
2023-01-13T05:05:19.419Z,75.70
2023-01-13T05:07:46.207Z,75.10
2023-01-13T05:10:13.160Z,75.60
2023-01-13T05:12:58.697Z,75.40
2023-01-13T05:15:44.423Z,75.50
2023-01-13T05:18:11.729Z,75.60
2023-01-13T05:20:38.470Z,75.20
2023-01-13T05:23:24.118Z,75.00
2023-01-13T05:25:51.091Z,75.10
2023-01-13T05:28:17.859Z,75.20
2023-01-13T05:30:49.419Z,75.20
2023-01-13T05:33:36.063Z,75.40
2023-01-13T05:36:04.077Z,75.30
2023-01-13T05:38:33.385Z,75.30
2023-01-13T05:41:19.554Z,75.50
2023-01-13T05:43:48.577Z,75.10
2023-01-13T05:46:17.883Z,74.90
2023-01-13T05:48:44.715Z,75.00
2023-01-13T05:51:12.785Z,75.50
2023-01-13T05:53:40.877Z,75.10
2023-01-13T05:56:11.733Z,74.90
2023-01-13T05:58:39.055Z,74.90
2023-01-13T06:01:08.536Z,75.00
2023-01-13T06:03:37.579Z,75.10
2023-01-13T06:06:09.181Z,74.80
2023-01-13T06:08:39.439Z,75.30
2023-01-13T06:11:06.782Z,75.60
2023-01-13T06:13:33.615Z,75.70
2023-01-13T06:16:00.711Z,75.80
2023-01-13T06:18:28.381Z,75.70
2023-01-13T06:21:02.608Z,75.70
2023-01-13T06:23:29.583Z,76.10
2023-01-13T06:26:21.391Z,76.10
2023-01-13T06:28:49.963Z,76.60
2023-01-13T06:31:17.112Z,76.40
2023-01-13T06:33:50.312Z,76.20
2023-01-13T06:36:22.491Z,75.80
2023-01-13T06:38:53.660Z,75.80
2023-01-13T06:41:41.099Z,75.60
2023-01-13T06:44:07.783Z,74.90
2023-01-13T06:46:35.681Z,74.90
2023-01-13T06:49:02.401Z,74.60
2023-01-13T06:51:29.060Z,74.60
2023-01-13T06:53:55.911Z,74.70
2023-01-13T06:56:22.758Z,74.30
2023-01-13T06:58:49.411Z,74.00
2023-01-13T07:01:17.571Z,74.50
2023-01-13T07:03:44.463Z,74.50
2023-01-13T07:06:11.353Z,74.70
2023-01-13T07:08:38.241Z,74.20
2023-01-13T07:11:05.033Z,74.10
2023-01-13T07:13:50.891Z,74.40
2023-01-13T07:16:17.835Z,74.50
2023-01-13T07:18:44.898Z,74.90
2023-01-13T07:21:13.394Z,74.80
2023-01-13T07:23:43.287Z,74.90
2023-01-13T07:26:11.086Z,74.20
2023-01-13T07:28:38.349Z,74.30
2023-01-13T07:31:06.406Z,74.50
2023-01-13T07:33:33.411Z,74.00
2023-01-13T07:36:05.883Z,73.90
2023-01-13T07:38:34.028Z,74.60
2023-01-13T07:41:24.070Z,74.40
2023-01-13T07:43:52.200Z,74.30
2023-01-13T07:46:19.222Z,74.60
2023-01-13T07:48:47.296Z,74.50
2023-01-13T07:51:13.921Z,74.60
2023-01-13T07:53:41.096Z,74.80
2023-01-13T07:56:08.691Z,74.90
2023-01-13T07:58:36.273Z,75.00
2023-01-13T08:01:13.621Z,75.20
2023-01-13T08:03:41.101Z,75.10
2023-01-13T08:06:11.639Z,74.60
2023-01-13T08:08:38.883Z,74.50
2023-01-13T08:11:07.482Z,74.40
2023-01-13T08:13:34.614Z,74.40
2023-01-13T08:16:08.064Z,74.30
2023-01-13T08:18:36.230Z,73.90
2023-01-13T08:21:09.832Z,73.60
2023-01-13T08:23:37.266Z,73.60
2023-01-13T08:26:06.327Z,73.20
2023-01-13T08:28:33.934Z,73.30
2023-01-13T08:31:01.469Z,72.80
2023-01-13T08:33:29.124Z,72.40
2023-01-13T08:35:56.529Z,71.20
2023-01-13T08:38:24.438Z,71.50
2023-01-13T08:40:51.498Z,71.00
2023-01-13T08:43:18.334Z,71.80
2023-01-13T08:45:45.153Z,71.90
2023-01-13T08:48:12.363Z,70.50
2023-01-13T08:50:39.122Z,71.20
2023-01-13T08:53:07.193Z,71.40
2023-01-13T08:55:34.107Z,71.20
2023-01-13T08:58:14.660Z,71.60
2023-01-13T09:00:42.899Z,71.50
2023-01-13T09:03:09.943Z,70.50
2023-01-13T09:05:36.916Z,71.00
2023-01-13T09:08:03.671Z,70.90
2023-01-13T09:10:30.539Z,71.10
2023-01-13T09:13:12.789Z,71.30
2023-01-13T09:15:45.369Z,70.80
2023-01-13T09:18:13.003Z,71.10
2023-01-13T09:20:40.384Z,71.30
2023-01-13T09:23:10.048Z,71.60
2023-01-13T09:25:37.673Z,72.20
2023-01-13T09:28:05.063Z,73.00
2023-01-13T09:30:32.379Z,73.30
2023-01-13T09:33:18.397Z,73.10
2023-01-13T09:35:45.671Z,73.10
2023-01-13T09:38:12.469Z,73.70
2023-01-13T09:40:41.385Z,73.10
2023-01-13T09:43:47.895Z,74.20
2023-01-13T09:46:43.441Z,73.50
2023-01-13T09:49:22.866Z,73.70
2023-01-13T09:52:05.545Z,73.80
2023-01-13T09:54:41.299Z,73.60
2023-01-13T09:57:13.249Z,73.50
2023-01-13T09:59:41.108Z,72.40
2023-01-13T10:02:19.908Z,72.70
2023-01-13T10:05:17.708Z,73.30
2023-01-13T10:08:02.264Z,72.90
2023-01-13T10:10:55.194Z,72.10
2023-01-13T10:13:29.538Z,72.10
2023-01-13T10:16:25.541Z,71.80
2023-01-13T10:19:18.068Z,71.30
2023-01-13T10:22:10.914Z,71.60
2023-01-13T10:25:14.957Z,71.50
2023-01-13T10:27:43.111Z,71.30
2023-01-13T10:30:21.687Z,69.80
2023-01-13T10:32:57.909Z,69.10
2023-01-13T10:35:50.121Z,70.10
2023-01-13T10:38:29.929Z,69.40
2023-01-13T10:41:05.966Z,68.10
2023-01-13T10:43:33.072Z,68.90
2023-01-13T10:46:06.622Z,68.80
2023-01-13T10:48:36.964Z,68.40
2023-01-13T10:51:13.799Z,67.90
2023-01-13T10:54:12.853Z,67.50
2023-01-13T10:56:42.491Z,66.30
2023-01-13T10:59:14.972Z,65.60
2023-01-13T11:01:53.851Z,65.80
2023-01-13T11:04:31.316Z,65.60
2023-01-13T11:06:59.329Z,65.60
2023-01-13T11:09:27.688Z,64.80
2023-01-13T11:11:56.158Z,65.20
2023-01-13T11:14:39.807Z,65.00
2023-01-13T11:17:39.459Z,65.00
2023-01-13T11:20:15.962Z,65.00
2023-01-13T11:22:48.975Z,64.80
2023-01-13T11:25:23.220Z,64.20
2023-01-13T11:28:17.629Z,64.00
2023-01-13T11:30:57.029Z,64.10
2023-01-13T11:33:52.215Z,61.40
2023-01-13T11:36:25.027Z,61.90
2023-01-13T11:38:56.000Z,60.20
2023-01-13T11:41:32.029Z,61.10
2023-01-13T11:44:04.797Z,61.10
2023-01-13T11:46:33.085Z,62.30
2023-01-13T11:49:01.443Z,62.70
2023-01-13T11:52:06.276Z,61.80
2023-01-13T11:54:59.648Z,62.10
2023-01-13T11:57:46.986Z,61.70
2023-01-13T12:00:37.347Z,62.20
2023-01-13T12:03:34.099Z,62.40
2023-01-13T12:06:22.071Z,64.10
2023-01-13T12:08:54.643Z,64.50
2023-01-13T12:12:12.400Z,64.50
2023-01-13T12:14:39.307Z,64.50
2023-01-13T12:17:19.354Z,68.20
2023-01-13T12:19:51.359Z,68.30
2023-01-13T12:22:31.750Z,70.20
2023-01-13T12:25:06.266Z,70.30
2023-01-13T12:27:33.115Z,70.10
2023-01-13T12:30:03.612Z,69.10
2023-01-13T12:32:38.267Z,68.30
2023-01-13T12:35:23.244Z,67.20
2023-01-13T12:38:06.973Z,67.00
2023-01-13T12:40:39.786Z,67.60
2023-01-13T12:43:35.155Z,67.30
2023-01-13T12:46:22.916Z,67.30
2023-01-13T12:48:57.147Z,67.70
2023-01-13T12:51:57.384Z,67.00
2023-01-13T12:54:45.071Z,66.90
2023-01-13T12:57:22.024Z,66.40
2023-01-13T13:00:09.029Z,67.10
2023-01-13T13:02:40.968Z,67.50
2023-01-13T13:05:24.165Z,67.50
2023-01-13T13:08:16.542Z,68.70
2023-01-13T13:11:02.629Z,69.30
2023-01-13T13:13:50.254Z,70.80
2023-01-13T13:16:26.455Z,71.60
2023-01-13T13:19:18.976Z,72.20
2023-01-13T13:22:08.547Z,71.00
2023-01-13T13:24:35.463Z,72.30
2023-01-13T13:27:24.777Z,70.60
2023-01-13T13:30:02.073Z,69.70
2023-01-13T13:32:47.530Z,68.20
2023-01-13T13:35:52.341Z,67.10
2023-01-13T13:38:59.531Z,67.30
2023-01-13T13:41:48.099Z,67.60
2023-01-13T13:44:42.347Z,66.20
2023-01-13T13:47:10.199Z,67.20
2023-01-13T13:49:40.655Z,66.70
2023-01-13T13:52:20.724Z,66.70
2023-01-13T13:54:52.615Z,66.70
2023-01-13T13:57:28.161Z,67.40
2023-01-13T13:59:57.610Z,67.00
2023-01-13T14:02:30.753Z,67.40
2023-01-13T14:05:30.411Z,67.90
2023-01-13T14:08:17.621Z,68.50
2023-01-13T14:10:46.249Z,68.20
2023-01-13T14:13:33.896Z,68.90
2023-01-13T14:16:06.828Z,68.40
2023-01-13T14:18:46.008Z,69.10
2023-01-13T14:21:18.206Z,69.40
2023-01-13T14:24:02.119Z,69.70
2023-01-13T14:26:32.590Z,70.10
2023-01-13T14:29:02.140Z,69.90
2023-01-13T14:31:30.313Z,70.10
2023-01-13T14:34:00.855Z,69.80
2023-01-13T14:36:33.696Z,69.90
2023-01-13T14:39:03.496Z,70.10
2023-01-13T14:41:48.601Z,70.40
2023-01-13T14:44:27.058Z,68.40
2023-01-13T14:46:58.190Z,71.00
2023-01-13T14:49:38.510Z,74.50
2023-01-13T14:52:07.518Z,78.20
2023-01-13T14:54:52.348Z,78.90
2023-01-13T14:57:33.900Z,80.60
2023-01-13T15:00:03.938Z,81.40
2023-01-13T15:02:30.703Z,82.00
2023-01-13T15:05:22.503Z,81.60
2023-01-13T15:07:50.454Z,81.90
2023-01-13T15:10:28.466Z,82.30
2023-01-13T15:12:57.697Z,82.90
2023-01-13T15:15:30.457Z,82.90
2023-01-13T15:17:57.502Z,83.00
2023-01-13T15:20:25.008Z,83.10
2023-01-13T15:22:52.828Z,83.10
2023-01-13T15:25:20.868Z,82.90
2023-01-13T15:27:50.625Z,83.40
2023-01-13T15:30:24.890Z,84.00
2023-01-13T15:32:55.974Z,84.20
2023-01-13T15:35:24.752Z,84.40
2023-01-13T15:37:52.470Z,84.80
2023-01-13T15:40:23.800Z,84.80
2023-01-13T15:43:09.154Z,84.30
2023-01-13T15:45:56.051Z,84.10
2023-01-13T15:48:24.257Z,84.30
2023-01-13T15:50:51.698Z,84.90
2023-01-13T15:53:18.553Z,85.10
2023-01-13T15:55:49.104Z,85.20
2023-01-13T15:58:19.228Z,85.20
2023-01-13T16:00:45.992Z,85.30
2023-01-13T16:03:14.085Z,85.00
2023-01-13T16:05:41.839Z,85.20
2023-01-13T16:08:20.410Z,85.60
2023-01-13T16:10:47.455Z,85.60
2023-01-13T16:13:15.767Z,85.60
2023-01-13T16:15:50.803Z,85.30
2023-01-13T16:18:20.865Z,85.40
2023-01-13T16:20:52.929Z,85.10
2023-01-13T16:23:22.550Z,85.10
2023-01-13T16:25:50.468Z,84.90
2023-01-13T16:28:24.494Z,85.00
2023-01-13T16:30:51.475Z,84.80
2023-01-13T16:33:18.350Z,85.50
2023-01-13T16:36:10.879Z,85.10
2023-01-13T16:38:32.095Z,85.10
2023-01-13T16:40:59.047Z,85.10
2023-01-13T16:43:25.948Z,85.30
2023-01-13T16:45:53.049Z,85.30
2023-01-13T16:48:20.622Z,85.30
2023-01-13T16:50:47.674Z,85.50
2023-01-13T16:53:14.571Z,85.70
2023-01-13T16:55:42.351Z,85.80
2023-01-13T16:58:20.652Z,85.50
2023-01-13T17:00:48.947Z,86.00
2023-01-13T17:03:16.582Z,85.60
2023-01-13T17:05:44.374Z,86.00
2023-01-13T17:08:17.665Z,86.00
2023-01-13T17:10:46.919Z,86.20
2023-01-13T17:13:17.004Z,86.50
2023-01-13T17:15:47.572Z,86.70
2023-01-13T17:18:14.509Z,87.60
2023-01-13T17:20:41.516Z,86.70
2023-01-13T17:23:08.404Z,87.00
2023-01-13T17:25:35.123Z,86.90
2023-01-13T17:28:01.884Z,86.90
2023-01-13T17:30:28.849Z,87.00
2023-01-13T17:32:55.571Z,87.60
2023-01-13T17:35:24.901Z,87.30
2023-01-13T17:37:53.304Z,87.30
2023-01-13T17:40:20.656Z,87.00
2023-01-13T17:42:47.324Z,87.00
2023-01-13T17:45:15.040Z,87.10
2023-01-13T17:47:41.654Z,87.10
2023-01-13T17:50:10.102Z,87.60
2023-01-13T17:52:36.812Z,87.50
2023-01-13T17:55:05.012Z,87.90
2023-01-13T17:57:31.735Z,89.30
2023-01-13T17:59:59.626Z,89.30
2023-01-13T18:02:26.519Z,89.40
2023-01-13T18:04:53.567Z,89.70
2023-01-13T18:07:20.349Z,89.80
2023-01-13T18:09:48.770Z,90.10
2023-01-13T18:12:15.696Z,90.20
2023-01-13T18:14:42.473Z,90.00
2023-01-13T18:17:09.285Z,90.10
2023-01-13T18:19:54.625Z,90.00
2023-01-13T18:22:40.195Z,90.10
2023-01-13T18:25:32.109Z,89.60
2023-01-13T18:28:05.297Z,89.50
2023-01-13T18:30:32.104Z,89.90
2023-01-13T18:32:59.281Z,89.70
2023-01-13T18:35:26.068Z,89.50
2023-01-13T18:37:54.426Z,89.60
2023-01-13T18:40:21.394Z,89.50
2023-01-13T18:42:51.497Z,89.20
2023-01-13T18:45:28.006Z,89.00
2023-01-13T18:47:56.785Z,89.30
2023-01-13T18:50:24.391Z,89.00
2023-01-13T18:52:51.535Z,89.10
2023-01-13T18:55:18.422Z,89.00
2023-01-13T18:57:45.754Z,89.10
2023-01-13T19:00:16.070Z,89.00
2023-01-13T19:02:46.568Z,89.10
2023-01-13T19:05:13.957Z,88.90
2023-01-13T19:07:40.750Z,89.00
2023-01-13T19:10:09.688Z,89.00
2023-01-13T19:12:36.777Z,89.00
2023-01-13T19:15:04.742Z,89.00
2023-01-13T19:17:34.764Z,89.00
2023-01-13T19:20:02.553Z,88.70
2023-01-13T19:22:32.693Z,88.30
2023-01-13T19:25:00.494Z,88.70
2023-01-13T19:27:28.413Z,88.60
2023-01-13T19:29:58.609Z,88.70
2023-01-13T19:32:25.819Z,89.20
2023-01-13T19:34:54.928Z,89.50
2023-01-13T19:37:25.094Z,90.10
2023-01-13T19:39:52.166Z,90.40
2023-01-13T19:42:37.445Z,90.40
2023-01-13T19:45:23.455Z,90.50
2023-01-13T19:47:50.148Z,90.60
2023-01-13T19:50:17.097Z,90.60
2023-01-13T19:52:44.197Z,90.50
2023-01-13T19:55:12.634Z,90.50
2023-01-13T19:57:40.515Z,90.40
2023-01-13T20:00:10.262Z,90.30
2023-01-13T20:02:44.862Z,89.90
2023-01-13T20:05:12.973Z,89.60
2023-01-13T20:07:39.993Z,89.70
2023-01-13T20:10:07.465Z,89.40
2023-01-13T20:12:34.288Z,89.30
2023-01-13T20:15:01.273Z,89.10
2023-01-13T20:17:29.339Z,88.90
2023-01-13T20:19:59.097Z,88.90
2023-01-13T20:22:25.761Z,88.70
2023-01-13T20:24:55.767Z,88.00
2023-01-13T20:27:24.002Z,87.70
2023-01-13T20:29:51.770Z,87.60
2023-01-13T20:32:18.483Z,88.00
2023-01-13T20:34:45.330Z,87.90
2023-01-13T20:37:12.048Z,87.60
2023-01-13T20:39:41.903Z,87.50
2023-01-13T20:42:28.181Z,86.90
2023-01-13T20:44:57.518Z,86.60
2023-01-13T20:47:25.109Z,86.50
2023-01-13T20:49:52.089Z,86.00
2023-01-13T20:52:19.111Z,85.70
2023-01-13T20:54:46.179Z,85.40
2023-01-13T20:57:13.297Z,85.10
2023-01-13T20:59:42.174Z,84.70
2023-01-13T21:02:13.605Z,84.30
2023-01-13T21:04:42.852Z,84.60
2023-01-13T21:07:09.877Z,84.30
2023-01-13T21:09:39.229Z,84.40
2023-01-13T21:12:26.084Z,84.20
2023-01-13T21:15:12.261Z,84.80
2023-01-13T21:17:57.386Z,84.60
2023-01-13T21:20:27.145Z,84.30
2023-01-13T21:22:56.789Z,84.70
2023-01-13T21:25:23.887Z,84.80
2023-01-13T21:27:54.860Z,85.30
2023-01-13T21:30:21.644Z,85.60
2023-01-13T21:32:49.202Z,85.70
2023-01-13T21:35:17.200Z,86.10
2023-01-13T21:37:44.484Z,86.30
2023-01-13T21:40:13.965Z,86.40
2023-01-13T21:42:59.378Z,86.50
2023-01-13T21:45:44.628Z,86.50
2023-01-13T21:48:11.895Z,86.30
2023-01-13T21:50:39.021Z,86.30
2023-01-13T21:53:08.018Z,86.20
2023-01-13T21:55:36.526Z,86.30
2023-01-13T21:58:12.407Z,86.60
2023-01-13T22:00:43.949Z,86.60
2023-01-13T22:03:14.497Z,86.70
2023-01-13T22:05:41.766Z,86.70
2023-01-13T22:08:12.293Z,86.10
2023-01-13T22:10:56.979Z,85.80
2023-01-13T22:13:42.843Z,85.70
2023-01-13T22:16:10.449Z,85.60
2023-01-13T22:18:37.288Z,85.70
2023-01-13T22:21:04.695Z,85.80
2023-01-13T22:23:33.957Z,86.00
2023-01-13T22:26:02.113Z,86.10
2023-01-13T22:28:40.250Z,86.00
2023-01-13T22:31:10.990Z,86.10
2023-01-13T22:33:40.263Z,86.00
2023-01-13T22:36:10.467Z,86.10
2023-01-13T22:38:37.382Z,86.10
2023-01-13T22:41:08.184Z,86.20
2023-01-13T22:43:38.685Z,86.10
2023-01-13T22:46:25.828Z,86.10
2023-01-13T22:48:56.486Z,86.00
2023-01-13T22:51:26.653Z,85.90
2023-01-13T22:53:56.792Z,85.90
2023-01-13T22:56:26.465Z,85.60
2023-01-13T22:58:55.567Z,85.70
2023-01-13T23:01:24.288Z,85.70
2023-01-13T23:03:54.101Z,85.80
2023-01-13T23:06:24.525Z,86.00
2023-01-13T23:08:52.565Z,86.00
2023-01-13T23:11:23.541Z,86.30
2023-01-13T23:13:56.938Z,86.10
2023-01-13T23:16:24.976Z,86.20
2023-01-13T23:18:53.165Z,85.90
2023-01-13T23:21:26.903Z,86.10
2023-01-13T23:23:55.608Z,86.30
2023-01-13T23:26:25.612Z,86.30
2023-01-13T23:28:53.229Z,86.30
2023-01-13T23:31:22.650Z,86.70
2023-01-13T23:33:51.088Z,86.90
2023-01-13T23:36:21.660Z,87.00
2023-01-13T23:38:49.984Z,87.30
2023-01-13T23:41:22.516Z,87.00
2023-01-13T23:43:56.809Z,87.30
2023-01-13T23:46:25.045Z,87.10
2023-01-13T23:48:55.360Z,87.20
2023-01-13T23:51:26.093Z,87.70
2023-01-13T23:53:54.246Z,87.60
2023-01-13T23:56:28.280Z,87.80
2023-01-13T23:58:56.584Z,88.20
